Time;durP1;ratioP1;P1;durP2;ratioP2;P2;SDS_P1;SDS_P2;PMS_P1;PMS_P2;Temp;Humidity;BMP_temperature;BMP_pressure;BME280_temperature;BME280_humidity;BME280_pressure;Samples;Min_cycle;Max_cycle;Signal;HPM_P1;HPM_P2
2021/12/04 00:01:51;;;;;;;1.90;1.63;;;-0.10;82.40;;;;;;5068544;28;20616;-85
2021/12/04 00:04:23;;;;;;;2.63;1.60;;;-0.10;82.20;;;;;;5057023;28;20208;-81
2021/12/04 00:06:50;;;;;;;1.83;1.50;;;-0.10;81.90;;;;;;5056294;28;20320;-82
2021/12/04 00:09:20;;;;;;;1.50;1.33;;;0.00;81.30;;;;;;5056440;28;20292;-81
2021/12/04 00:11:54;;;;;;;1.63;1.30;;;0.10;80.60;;;;;;5055435;28;20300;-81
2021/12/04 00:14:21;;;;;;;1.87;1.40;;;0.10;80.90;;;;;;5056095;28;20652;-83
2021/12/04 00:16:48;;;;;;;1.50;1.33;;;0.10;80.20;;;;;;5055763;28;20229;-81
2021/12/04 00:19:17;;;;;;;2.60;1.60;;;0.10;79.10;;;;;;5055942;28;20228;-81
2021/12/04 00:21:44;;;;;;;1.60;1.40;;;0.20;79.50;;;;;;5045838;28;20713;-81
2021/12/04 00:24:11;;;;;;;2.43;1.40;;;0.20;80.10;;;;;;5048598;28;20195;-82
2021/12/04 00:26:39;;;;;;;1.90;1.50;;;0.20;79.80;;;;;;5040824;28;20228;-82
2021/12/04 00:29:06;;;;;;;1.97;1.40;;;0.20;81.30;;;;;;5051205;28;20651;-81
2021/12/04 00:31:35;;;;;;;2.97;1.40;;;0.00;80.60;;;;;;5051569;28;20249;-83
2021/12/04 00:34:02;;;;;;;2.07;1.37;;;0.00;81.00;;;;;;5053126;28;20192;-81
2021/12/04 00:36:35;;;;;;;2.20;1.47;;;0.10;80.80;;;;;;5055540;28;20274;-82
2021/12/04 04:59:46;;;;;;;1.10;1.00;;;1.20;94.30;;;;;;4990869;28;20707;-83
2021/12/04 05:02:29;;;;;;;1.20;1.10;;;1.20;94.60;;;;;;4981374;28;20228;-84
2021/12/04 05:13:18;;;;;;;1.73;1.10;;;1.40;96.10;;;;;;4968709;28;20576;-83
2021/12/04 05:16:12;;;;;;;1.53;1.30;;;1.50;96.10;;;;;;4970735;28;20209;-83
2021/12/04 05:18:42;;;;;;;2.17;1.60;;;1.50;96.30;;;;;;5018505;28;20607;-83
2021/12/04 05:21:11;;;;;;;1.60;1.50;;;1.60;96.40;;;;;;5028312;28;20332;-82
2021/12/04 05:23:42;;;;;;;2.03;1.63;;;1.60;96.50;;;;;;5014825;28;20211;-83
2021/12/04 05:26:12;;;;;;;1.87;1.50;;;1.60;96.70;;;;;;5017012;28;20337;-83
2021/12/04 05:28:39;;;;;;;1.97;1.60;;;1.50;96.90;;;;;;5013952;28;20643;-82
2021/12/04 05:31:06;;;;;;;2.47;1.70;;;1.50;97.50;;;;;;5020584;28;20721;-83
2021/12/04 05:33:33;;;;;;;1.50;1.40;;;1.70;97.60;;;;;;5015083;28;20191;-83
2021/12/04 05:36:00;;;;;;;2.10;1.30;;;1.70;97.80;;;;;;5019191;28;20225;-83
2021/12/04 05:38:27;;;;;;;1.10;1.00;;;1.80;97.90;;;;;;5017121;28;20207;-83
2021/12/04 05:40:56;;;;;;;2.50;1.20;;;1.80;98.00;;;;;;5013266;28;20227;-83
2021/12/04 05:43:24;;;;;;;2.50;1.10;;;1.90;97.80;;;;;;5012895;28;20230;-84
2021/12/04 05:45:57;;;;;;;2.27;1.20;;;1.90;97.80;;;;;;5010982;28;20315;-84
2021/12/04 05:53:57;;;;;;;1.20;1.10;;;1.90;98.20;;;;;;5030246;28;20230;-82
2021/12/04 05:56:27;;;;;;;3.60;1.23;;;2.00;98.50;;;;;;5016440;28;20276;-83
2021/12/04 05:58:54;;;;;;;1.87;1.03;;;1.90;98.80;;;;;;5034868;28;20191;-82
2021/12/04 06:01:48;;;;;;;5.40;1.10;;;2.00;98.80;;;;;;5035023;28;20245;-82
2021/12/04 06:07:39;;;;;;;1.30;1.17;;;1.80;99.60;;;;;;5034253;28;20272;-83
2021/12/04 06:10:07;;;;;;;2.27;1.43;;;1.80;99.60;;;;;;5008257;28;20229;-82
2021/12/04 06:12:35;;;;;;;1.67;1.20;;;1.80;99.90;;;;;;5007358;28;20234;-82
2021/12/04 06:15:03;;;;;;;3.07;1.37;;;1.80;99.90;;;;;;5013242;28;20205;-84
2021/12/04 06:17:30;;;;;;;2.10;1.60;;;1.80;99.90;;;;;;5013499;28;20218;-82
2021/12/04 06:22:42;;;;;;;3.47;1.50;;;1.70;99.90;;;;;;5011105;28;20237;-83
2021/12/04 06:25:13;;;;;;;2.70;1.47;;;1.80;99.90;;;;;;5014188;28;20213;-84
2021/12/04 06:27:42;;;;;;;3.13;1.50;;;1.80;99.90;;;;;;5014091;28;20229;-82
2021/12/04 06:30:12;;;;;;;1.73;1.20;;;1.90;99.90;;;;;;5017268;28;20194;-82
2021/12/04 06:32:39;;;;;;;3.20;1.43;;;1.90;99.90;;;;;;5017350;28;20218;-82
2021/12/04 06:35:09;;;;;;;1.40;1.30;;;1.90;99.90;;;;;;5022402;28;20237;-82
2021/12/04 06:37:36;;;;;;;4.43;1.30;;;2.00;99.90;;;;;;5005006;28;20592;-83
2021/12/04 06:40:05;;;;;;;2.10;1.50;;;2.00;99.90;;;;;;5013810;28;20226;-84
2021/12/04 06:42:31;;;;;;;3.83;1.63;;;2.00;99.90;;;;;;5013703;28;20223;-84
2021/12/04 06:45:01;;;;;;;1.70;1.20;;;2.10;99.90;;;;;;5015127;28;20222;-81
2021/12/04 06:47:31;;;;;;;3.67;1.20;;;2.10;99.90;;;;;;5017014;28;20227;-81
2021/12/04 06:50:03;;;;;;;1.60;1.50;;;2.10;99.90;;;;;;5018741;28;20313;-82
2021/12/04 06:52:31;;;;;;;1.53;1.27;;;2.10;99.90;;;;;;5016237;28;20330;-82
2021/12/04 06:54:59;;;;;;;3.77;1.40;;;2.10;99.90;;;;;;5017353;28;20202;-82
2021/12/04 06:57:27;;;;;;;1.53;1.33;;;2.00;99.90;;;;;;5011359;28;20231;-81
2021/12/04 06:59:55;;;;;;;2.27;1.40;;;2.10;99.90;;;;;;4994511;28;20199;-81
2021/12/04 07:02:23;;;;;;;1.77;1.63;;;2.10;99.90;;;;;;5013677;28;20898;-82
2021/12/04 07:04:50;;;;;;;1.97;1.50;;;2.10;99.90;;;;;;5018235;28;20278;-81
2021/12/04 07:07:18;;;;;;;2.77;1.50;;;2.20;99.90;;;;;;5012808;28;20706;-83
2021/12/04 07:09:45;;;;;;;2.43;1.40;;;2.20;99.90;;;;;;5012952;28;20203;-80
2021/12/04 07:12:12;;;;;;;1.53;1.40;;;2.20;99.90;;;;;;5021982;28;20233;-83
2021/12/04 07:14:39;;;;;;;3.77;1.50;;;2.20;99.90;;;;;;5011086;28;20212;-82
2021/12/04 07:17:08;;;;;;;2.23;1.50;;;2.30;99.90;;;;;;5015108;28;20234;-83
2021/12/04 07:19:37;;;;;;;1.57;1.30;;;2.30;99.90;;;;;;5007853;28;20198;-81
2021/12/04 07:22:08;;;;;;;1.70;1.47;;;2.40;99.90;;;;;;5016446;28;20231;-88
2021/12/04 07:24:35;;;;;;;2.67;1.40;;;2.40;99.90;;;;;;5027057;28;20278;-81
2021/12/04 07:27:02;;;;;;;2.77;1.73;;;2.40;99.90;;;;;;5021000;28;20223;-83
2021/12/04 07:29:29;;;;;;;3.17;2.03;;;2.40;99.90;;;;;;5024611;28;20318;-83
2021/12/04 07:31:56;;;;;;;5.77;1.60;;;2.40;99.90;;;;;;5040960;28;20230;-82
2021/12/04 07:34:23;;;;;;;4.13;1.93;;;2.40;99.90;;;;;;5034090;28;20206;-80
2021/12/04 07:36:51;;;;;;;8.43;1.97;;;2.30;99.90;;;;;;5022771;28;20812;-81
2021/12/04 07:39:18;;;;;;;5.90;2.37;;;2.30;99.90;;;;;;5014211;28;20207;-82
2021/12/04 07:41:45;;;;;;;4.30;2.00;;;2.30;99.90;;;;;;5021892;28;20233;-81
2021/12/04 07:44:14;;;;;;;3.73;2.20;;;2.40;99.90;;;;;;5012790;28;20219;-83
2021/12/04 07:46:42;;;;;;;5.93;2.10;;;2.50;99.90;;;;;;5013751;28;20754;-84
2021/12/04 07:49:09;;;;;;;3.47;2.03;;;2.50;99.90;;;;;;5017983;28;20290;-84
2021/12/04 07:51:36;;;;;;;8.27;2.00;;;2.50;99.90;;;;;;5013123;28;20231;-82
2021/12/04 07:54:04;;;;;;;5.03;2.20;;;2.40;99.90;;;;;;5010125;28;20199;-82
2021/12/04 07:56:32;;;;;;;7.40;2.30;;;2.40;99.90;;;;;;5013708;28;20246;-82
2021/12/04 07:58:59;;;;;;;5.10;2.27;;;2.40;99.90;;;;;;5015675;28;20205;-82
2021/12/04 08:01:28;;;;;;;2.60;1.90;;;2.50;99.90;;;;;;5014661;28;20302;-82
2021/12/04 08:03:55;;;;;;;4.27;2.07;;;2.60;99.90;;;;;;5016212;28;20191;-83
2021/12/04 08:06:22;;;;;;;7.63;3.83;;;2.50;99.90;;;;;;5012130;28;20231;-89
2021/12/04 08:08:53;;;;;;;2.10;1.90;;;2.60;99.90;;;;;;5009313;28;20234;-84
2021/12/04 08:11:22;;;;;;;4.47;2.20;;;2.60;99.90;;;;;;5014248;28;20243;-84
2021/12/04 08:13:48;;;;;;;4.00;2.30;;;2.70;99.90;;;;;;5008002;28;20207;-82
2021/12/04 08:16:15;;;;;;;4.47;2.30;;;2.90;99.90;;;;;;5002821;28;20231;-83
2021/12/04 08:18:42;;;;;;;4.80;1.90;;;3.00;99.90;;;;;;5015937;28;20566;-82
2021/12/04 08:21:09;;;;;;;3.53;2.50;;;3.10;99.90;;;;;;5008615;28;20227;-86
2021/12/04 08:23:38;;;;;;;4.90;2.10;;;3.10;99.90;;;;;;5009568;28;20206;-83
2021/12/04 08:26:05;;;;;;;3.53;2.10;;;3.20;99.90;;;;;;5003626;28;20259;-80
2021/12/04 08:28:33;;;;;;;3.03;1.83;;;3.20;99.90;;;;;;5018959;28;20203;-84
2021/12/04 08:31:00;;;;;;;8.13;2.43;;;3.30;99.90;;;;;;5017563;28;20262;-91
2021/12/04 08:33:27;;;;;;;9.73;2.20;;;3.30;99.90;;;;;;5015807;28;20211;-88
2021/12/04 08:35:54;;;;;;;5.57;2.33;;;3.30;99.90;;;;;;5016984;28;20233;-84
2021/12/04 08:38:21;;;;;;;14.07;2.60;;;3.40;99.70;;;;;;5011346;28;20195;-82
2021/12/04 08:40:48;;;;;;;4.53;2.20;;;3.40;99.60;;;;;;5006723;28;20219;-86
2021/12/04 08:43:15;;;;;;;6.10;2.23;;;3.50;99.40;;;;;;5013043;28;20216;-84
2021/12/04 08:45:45;;;;;;;9.87;2.17;;;3.40;99.60;;;;;;5005847;28;20211;-84
2021/12/04 08:48:13;;;;;;;8.63;2.07;;;3.50;99.60;;;;;;5018407;28;20195;-86
2021/12/04 08:50:40;;;;;;;8.43;2.67;;;3.40;99.90;;;;;;5005401;28;20663;-86
2021/12/04 08:53:09;;;;;;;8.07;2.37;;;3.20;99.90;;;;;;5005605;28;20218;-90
2021/12/04 08:55:38;;;;;;;13.20;2.70;;;3.20;99.90;;;;;;4994588;28;20210;-87
2021/12/04 08:58:10;;;;;;;5.50;2.20;;;3.30;99.90;;;;;;5013324;28;20191;-92
2021/12/04 09:00:46;;;;;;;9.00;3.00;;;3.30;99.90;;;;;;5027998;28;20219;-83
2021/12/04 09:03:15;;;;;;;5.93;2.60;;;3.30;99.90;;;;;;5013075;28;20191;-84
2021/12/04 09:05:42;;;;;;;4.60;2.30;;;3.40;99.90;;;;;;5019921;28;20196;-84
2021/12/04 09:08:09;;;;;;;5.70;2.27;;;3.50;99.90;;;;;;5014348;28;20202;-84
2021/12/04 09:10:41;;;;;;;7.83;2.60;;;3.50;99.90;;;;;;5010487;28;20253;-84
2021/12/04 09:13:08;;;;;;;7.30;2.50;;;3.50;99.90;;;;;;5004739;28;20195;-84
2021/12/04 09:15:36;;;;;;;5.20;2.23;;;3.60;99.50;;;;;;5019305;28;20195;-82
2021/12/04 09:18:04;;;;;;;9.10;2.53;;;3.70;99.40;;;;;;5018613;28;20204;-81
2021/12/04 09:20:33;;;;;;;5.47;2.57;;;3.70;99.50;;;;;;5017185;28;20207;-85
2021/12/04 09:23:02;;;;;;;6.17;2.20;;;3.80;99.60;;;;;;5017359;28;20199;-89
2021/12/04 09:25:31;;;;;;;9.67;2.50;;;3.80;99.70;;;;;;5019317;28;20208;-84
2021/12/04 10:34:38;;;;;;;3.33;2.17;;;5.80;98.30;;;;;;5015178;28;20548;-93
2021/12/04 10:46:37;;;;;;;1.77;1.67;;;6.30;98.40;;;;;;5245709;23;20241;-89
2021/12/04 10:49:11;;;;;;;2.92;2.42;;;6.40;98.00;;;;;;4986111;28;20202;-87
2021/12/04 10:51:48;;;;;;;2.00;1.60;;;6.60;98.00;;;;;;5003112;28;20262;-88
2021/12/04 10:54:23;;;;;;;1.95;1.63;;;6.80;97.10;;;;;;5023821;28;20199;-89
2021/12/04 10:57:32;;;;;;;2.20;1.50;;;7.00;96.70;;;;;;5009833;28;20223;-86
2021/12/04 11:00:04;;;;;;;1.95;1.45;;;7.10;96.40;;;;;;4992254;28;20214;-88
2021/12/04 11:06:05;;;;;;;1.73;1.45;;;6.90;96.60;;;;;;4983364;28;20235;-88
2021/12/04 11:22:25;;;;;;;2.47;1.70;;;7.30;96.30;;;;;;5023314;28;20229;-88
2021/12/04 11:39:22;;;;;;;3.50;3.00;;;7.80;95.60;;;;;;5024069;28;20203;-90
2021/12/04 11:42:01;;;;;;;2.95;2.40;;;7.80;95.70;;;;;;5010853;28;20231;-88
2021/12/04 11:51:06;;;;;;;2.22;1.70;;;8.10;95.70;;;;;;5024131;28;20184;-94
2021/12/04 12:00:41;;;;;;;1.60;1.45;;;8.00;95.70;;;;;;5002542;28;20207;-90
2021/12/04 12:03:12;;;;;;;1.40;1.30;;;8.00;95.70;;;;;;4982591;28;20227;-90
2021/12/04 12:15:50;;;;;;;1.42;1.27;;;8.00;96.00;;;;;;5016845;28;20206;-93
2021/12/04 12:21:49;;;;;;;3.28;2.25;;;8.20;96.60;;;;;;5027259;28;20230;-87
2021/12/04 12:27:34;;;;;;;3.58;1.58;;;8.00;96.80;;;;;;5011446;28;20222;-91
2021/12/04 12:36:05;;;;;;;8.73;5.45;;;8.10;97.80;;;;;;5000142;28;20627;-89
2021/12/04 12:38:41;;;;;;;4.72;3.70;;;8.20;98.30;;;;;;5020753;28;20265;-90
2021/12/04 12:41:20;;;;;;;2.90;2.40;;;8.20;97.90;;;;;;5014516;28;20219;-90
2021/12/04 12:47:32;;;;;;;2.60;2.10;;;8.20;98.20;;;;;;5022694;28;20570;-88
2021/12/04 12:49:59;;;;;;;3.08;1.42;;;8.30;98.60;;;;;;5023774;28;20206;-89
2021/12/04 12:52:28;;;;;;;3.05;1.52;;;8.40;98.80;;;;;;5021905;28;20239;-89
2021/12/04 12:54:59;;;;;;;3.05;2.22;;;8.60;98.50;;;;;;5020824;28;20195;-88
2021/12/04 12:57:29;;;;;;;3.58;1.45;;;8.80;98.00;;;;;;5017865;28;20223;-86
2021/12/04 13:11:53;;;;;;;3.13;2.45;;;8.90;97.10;;;;;;5013190;28;20673;-90
2021/12/04 13:14:24;;;;;;;2.17;1.98;;;9.00;96.90;;;;;;5016963;28;20207;-87
2021/12/04 13:16:53;;;;;;;4.82;2.38;;;8.80;97.00;;;;;;5020520;28;20196;-87
2021/12/04 13:19:23;;;;;;;2.20;1.67;;;8.70;97.20;;;;;;5018765;28;20253;-86
2021/12/04 13:21:53;;;;;;;2.00;1.50;;;8.70;97.60;;;;;;5019352;28;20235;-88
2021/12/04 13:24:25;;;;;;;1.60;1.42;;;8.60;97.70;;;;;;5021458;28;20215;-87
2021/12/04 13:26:54;;;;;;;5.00;1.70;;;8.60;97.60;;;;;;5018899;28;20235;-87
2021/12/04 13:29:26;;;;;;;2.60;2.15;;;8.60;97.70;;;;;;5021082;28;20195;-88
2021/12/04 13:31:55;;;;;;;1.60;1.50;;;8.60;97.60;;;;;;5020021;28;20269;-88
2021/12/04 13:34:26;;;;;;;2.60;1.77;;;8.60;97.60;;;;;;5019040;28;20207;-85
2021/12/04 13:36:54;;;;;;;2.35;1.80;;;8.50;97.40;;;;;;5017410;28;20241;-86
2021/12/04 13:39:22;;;;;;;2.85;2.40;;;8.50;97.50;;;;;;5019210;28;20214;-86
2021/12/04 13:41:53;;;;;;;5.75;2.50;;;8.60;97.50;;;;;;5016849;28;20318;-86
2021/12/04 13:44:22;;;;;;;5.35;3.22;;;8.50;97.20;;;;;;5018017;28;20316;-85
2021/12/04 13:46:51;;;;;;;2.85;1.60;;;8.50;97.20;;;;;;5018297;28;20219;-85
2021/12/04 13:49:21;;;;;;;1.55;1.45;;;8.60;96.60;;;;;;5016679;28;20714;-86
2021/12/04 13:51:55;;;;;;;3.10;2.75;;;8.60;96.40;;;;;;5016777;28;20234;-86
2021/12/04 13:54:22;;;;;;;1.52;1.42;;;8.60;96.90;;;;;;5011230;28;20681;-85
2021/12/04 13:56:50;;;;;;;1.30;1.20;;;8.70;95.90;;;;;;5018477;28;20689;-85
2021/12/04 13:59:23;;;;;;;2.08;1.40;;;8.60;96.10;;;;;;5019182;28;20209;-86
2021/12/04 14:01:50;;;;;;;1.60;1.45;;;8.60;96.20;;;;;;5019908;28;20230;-85
2021/12/04 14:04:18;;;;;;;2.03;1.65;;;8.60;96.20;;;;;;5021204;28;20213;-88
2021/12/04 14:06:54;;;;;;;1.58;1.30;;;8.70;95.90;;;;;;5021667;28;20251;-87
2021/12/04 14:09:22;;;;;;;1.40;1.30;;;8.70;95.90;;;;;;5015750;28;20230;-88
2021/12/04 14:11:49;;;;;;;1.85;1.20;;;8.70;95.10;;;;;;5016054;28;20543;-87
2021/12/04 14:14:20;;;;;;;1.92;1.40;;;8.60;95.80;;;;;;5018452;28;20196;-87
2021/12/04 14:16:51;;;;;;;2.75;2.17;;;8.60;95.80;;;;;;5016550;28;20237;-88
2021/12/04 14:19:21;;;;;;;1.85;1.33;;;8.50;95.80;;;;;;5018215;28;20199;-88
2021/12/04 14:22:03;;;;;;;1.23;1.13;;;8.50;95.80;;;;;;5019055;28;20241;-86
2021/12/04 14:24:34;;;;;;;0.90;0.90;;;8.50;95.80;;;;;;5023582;28;20201;-87
2021/12/04 14:27:04;;;;;;;1.10;0.93;;;8.50;95.80;;;;;;5016743;28;20238;-87
2021/12/04 14:29:36;;;;;;;1.58;1.08;;;8.50;95.70;;;;;;5022504;28;20257;-87
2021/12/04 14:32:34;;;;;;;1.33;0.93;;;8.50;95.80;;;;;;5020414;28;20230;-87
2021/12/04 14:35:04;;;;;;;1.20;1.10;;;8.40;95.80;;;;;;5015355;28;20225;-88
2021/12/04 14:37:47;;;;;;;1.52;1.13;;;8.30;95.80;;;;;;5017714;28;20605;-87
2021/12/04 14:40:17;;;;;;;0.80;0.80;;;8.30;95.80;;;;;;5018682;28;20231;-88
2021/12/04 14:42:46;;;;;;;0.90;0.70;;;8.30;95.80;;;;;;5020288;28;20283;-87
2021/12/04 14:45:20;;;;;;;2.28;1.02;;;8.40;95.80;;;;;;5052340;23;20250;-88
2021/12/04 14:47:49;;;;;;;1.05;0.90;;;8.40;95.50;;;;;;5017147;28;20230;-88
2021/12/04 14:50:18;;;;;;;0.70;0.70;;;8.40;94.80;;;;;;5037173;28;20634;-86
2021/12/04 14:52:51;;;;;;;0.80;0.80;;;8.40;94.80;;;;;;5007281;28;20242;-87
2021/12/04 14:55:22;;;;;;;1.10;1.00;;;8.40;94.70;;;;;;4980138;28;20203;-87
2021/12/04 14:57:50;;;;;;;0.80;0.80;;;8.30;95.00;;;;;;4998351;28;20683;-87
2021/12/04 15:00:20;;;;;;;0.80;0.80;;;8.30;95.00;;;;;;5008765;28;20192;-89
2021/12/04 15:03:01;;;;;;;1.15;0.90;;;8.20;95.10;;;;;;5003341;28;20950;-88
2021/12/04 15:05:32;;;;;;;1.83;1.60;;;8.20;95.70;;;;;;4996420;28;20903;-88
2021/12/04 15:08:07;;;;;;;1.65;1.55;;;8.10;95.70;;;;;;5001504;28;20228;-88
2021/12/04 15:10:35;;;;;;;0.88;0.88;;;8.10;95.70;;;;;;4997053;28;20196;-88
2021/12/04 15:13:03;;;;;;;0.88;0.88;;;8.00;96.10;;;;;;5000881;28;20861;-87
2021/12/04 15:15:34;;;;;;;1.00;0.90;;;7.90;96.10;;;;;;4996394;28;20633;-86
2021/12/04 15:18:06;;;;;;;2.38;1.10;;;7.80;96.70;;;;;;4994028;28;20235;-89
2021/12/04 15:20:46;;;;;;;1.13;0.80;;;7.80;97.40;;;;;;4993136;28;20214;-90
2021/12/04 15:23:20;;;;;;;2.30;1.10;;;7.70;97.90;;;;;;5009006;28;20223;-88
2021/12/04 15:25:51;;;;;;;1.45;1.23;;;7.70;98.30;;;;;;5002984;28;20208;-88
2021/12/04 15:28:21;;;;;;;1.27;0.90;;;7.60;98.70;;;;;;5003425;28;20272;-88
2021/12/04 15:30:50;;;;;;;1.30;1.20;;;7.50;99.00;;;;;;5015257;28;20203;-86
2021/12/04 15:33:24;;;;;;;26.48;19.30;;;7.40;99.10;;;;;;5012437;28;20233;-87
2021/12/04 15:35:52;;;;;;;2.10;1.90;;;8.00;98.50;;;;;;4995419;28;20215;-89
2021/12/04 15:38:36;;;;;;;17.90;14.27;;;8.10;96.80;;;;;;5013290;28;20205;-87
2021/12/04 15:41:13;;;;;;;24.13;11.27;;;8.40;97.40;;;;;;5015358;28;20222;-88
2021/12/04 15:43:44;;;;;;;8.13;4.97;;;8.90;95.90;;;;;;5003297;28;20269;-87
2021/12/04 15:46:20;;;;;;;18.83;9.75;;;8.80;94.60;;;;;;5007566;28;20238;-87
2021/12/04 15:54:37;;;;;;;1.92;1.50;;;8.50;96.40;;;;;;4969489;28;20203;-85
2021/12/04 15:57:11;;;;;;;5.72;1.98;;;8.20;96.50;;;;;;5012635;28;20226;-89
2021/12/04 15:59:45;;;;;;;1.27;1.00;;;8.10;97.60;;;;;;5015964;28;20222;-91
2021/12/04 16:02:16;;;;;;;3.55;1.77;;;7.90;97.40;;;;;;5016634;28;20234;-92
2021/12/04 16:04:45;;;;;;;3.13;1.53;;;8.00;97.60;;;;;;5013668;28;20200;-89
2021/12/04 16:07:30;;;;;;;1.00;0.90;;;8.00;96.90;;;;;;5012012;28;20223;-86
2021/12/04 16:10:09;;;;;;;12.10;6.60;;;7.90;96.90;;;;;;5018788;28;20245;-87
2021/12/04 16:12:38;;;;;;;8.00;5.05;;;8.00;98.00;;;;;;5017808;28;20234;-89
2021/12/04 16:15:07;;;;;;;5.33;2.53;;;8.10;97.70;;;;;;5018782;28;20211;-86
2021/12/04 16:17:34;;;;;;;2.55;1.65;;;8.20;96.50;;;;;;5000211;28;20651;-89
2021/12/04 16:20:06;;;;;;;2.10;0.97;;;8.50;95.80;;;;;;5017118;28;20199;-89
2021/12/04 16:22:37;;;;;;;3.73;2.60;;;8.30;95.80;;;;;;5007176;28;20819;-88
2021/12/04 16:25:11;;;;;;;8.73;7.23;;;8.30;95.80;;;;;;5013680;28;20302;-86
2021/12/04 16:27:49;;;;;;;4.57;3.27;;;8.10;96.20;;;;;;5014553;28;20224;-85
2021/12/04 16:30:37;;;;;;;9.00;6.63;;;8.10;96.90;;;;;;5017625;28;20210;-86
2021/12/04 16:33:28;;;;;;;10.82;6.80;;;8.30;96.40;;;;;;5001713;28;20223;-88
2021/12/04 16:36:03;;;;;;;3.88;2.80;;;8.20;97.30;;;;;;5009924;28;20207;-89
2021/12/04 16:38:30;;;;;;;0.80;0.80;;;8.30;96.20;;;;;;5010572;28;20203;-88
2021/12/04 16:41:08;;;;;;;2.00;1.10;;;8.40;95.10;;;;;;4989025;28;20195;-86
2021/12/04 16:43:37;;;;;;;1.97;1.57;;;7.90;95.70;;;;;;5011535;28;20222;-89
2021/12/04 16:46:08;;;;;;;2.85;2.55;;;8.00;96.10;;;;;;5000834;28;20223;-88
2021/12/04 16:48:39;;;;;;;3.25;2.10;;;8.30;95.80;;;;;;5006567;28;20214;-88
2021/12/04 16:59:32;;;;;;;0.75;0.75;;;8.10;95.30;;;;;;5015573;28;20210;-88
2021/12/04 17:02:07;;;;;;;1.00;0.90;;;8.20;95.70;;;;;;5018246;28;20231;-88
2021/12/04 17:04:36;;;;;;;1.73;1.50;;;8.10;95.40;;;;;;5015768;28;20209;-89
2021/12/04 17:07:04;;;;;;;1.77;1.33;;;8.10;96.10;;;;;;5009454;28;20232;-89
2021/12/04 17:09:32;;;;;;;1.00;0.93;;;8.10;95.90;;;;;;5022701;28;20281;-86
2021/12/04 17:12:02;;;;;;;0.95;0.90;;;8.00;95.30;;;;;;5016607;28;20219;-91
2021/12/04 17:14:31;;;;;;;1.17;1.07;;;8.00;95.70;;;;;;5021969;28;20310;-91
2021/12/04 17:16:59;;;;;;;2.83;1.23;;;8.20;95.50;;;;;;4998867;28;20238;-89
2021/12/04 17:19:27;;;;;;;1.50;0.98;;;8.10;95.70;;;;;;4987002;28;20599;-88
2021/12/04 17:25:18;;;;;;;0.80;0.80;;;8.30;95.50;;;;;;4996498;28;20203;-91
2021/12/04 17:27:47;;;;;;;1.00;0.90;;;8.30;95.80;;;;;;4973607;28;20224;-90
2021/12/04 17:30:16;;;;;;;1.10;0.88;;;8.40;94.30;;;;;;5001140;28;20730;-92
2021/12/04 17:32:44;;;;;;;0.80;0.80;;;8.10;95.20;;;;;;4984667;28;20274;-86
2021/12/04 17:35:13;;;;;;;3.15;1.00;;;7.80;95.70;;;;;;4978170;28;20562;-90
2021/12/04 17:37:41;;;;;;;1.30;1.10;;;7.60;96.40;;;;;;4994541;28;20224;-90
2021/12/04 17:40:09;;;;;;;1.00;0.90;;;7.40;97.10;;;;;;4997707;28;20206;-93
2021/12/04 17:42:37;;;;;;;1.40;0.80;;;7.40;97.50;;;;;;4993693;28;20594;-89
2021/12/04 17:45:21;;;;;;;0.70;0.70;;;7.40;97.40;;;;;;5102339;23;20734;-87
2021/12/04 17:47:48;;;;;;;1.70;0.97;;;7.30;97.50;;;;;;4987077;28;20306;-88
2021/12/04 17:50:26;;;;;;;1.00;0.90;;;7.40;97.40;;;;;;4993373;28;20207;-87
2021/12/04 17:52:55;;;;;;;0.70;0.70;;;7.40;97.00;;;;;;4994251;28;20312;-92
2021/12/04 17:55:24;;;;;;;0.97;0.97;;;7.40;97.20;;;;;;4991421;28;20294;-91
2021/12/04 17:58:48;;;;;;;0.63;0.63;;;7.40;97.00;;;;;;4996146;28;20302;-87
2021/12/04 18:01:20;;;;;;;1.03;1.00;;;7.40;97.40;;;;;;5001730;28;20651;-89
2021/12/04 18:03:48;;;;;;;1.43;0.80;;;7.40;97.50;;;;;;4995002;28;20215;-89
2021/12/04 18:06:19;;;;;;;1.10;1.03;;;7.30;97.40;;;;;;5000062;28;20203;-89
2021/12/04 18:08:48;;;;;;;1.20;1.00;;;7.30;97.30;;;;;;4996022;28;20196;-87
2021/12/04 18:11:59;;;;;;;0.80;0.80;;;7.30;97.20;;;;;;4994239;28;20223;-89
2021/12/04 18:14:28;;;;;;;0.80;0.80;;;7.40;96.90;;;;;;4984679;28;20284;-89
2021/12/04 18:17:53;;;;;;;2.53;1.07;;;7.40;97.00;;;;;;4980966;28;20200;-87
2021/12/04 18:20:23;;;;;;;0.87;0.80;;;7.40;96.80;;;;;;4993151;28;20286;-90
2021/12/04 18:22:52;;;;;;;1.30;1.10;;;7.50;96.60;;;;;;4987768;28;20279;-89
2021/12/04 18:25:19;;;;;;;0.80;0.80;;;7.50;96.60;;;;;;4983849;28;20560;-89
2021/12/04 18:27:48;;;;;;;1.17;1.08;;;7.50;96.40;;;;;;4983229;28;20228;-89
2021/12/04 18:30:18;;;;;;;1.00;1.00;;;7.50;96.30;;;;;;4981734;28;20279;-90
2021/12/04 18:32:47;;;;;;;1.00;0.70;;;7.60;96.30;;;;;;4993713;28;20232;-94
2021/12/04 18:35:16;;;;;;;2.40;0.93;;;7.60;96.00;;;;;;4974940;28;20300;-91
2021/12/04 18:59:51;;;;;;;1.48;1.35;;;7.70;95.60;;;;;;5982238;23;20242;-91
2021/12/04 19:02:21;;;;;;;1.20;0.90;;;7.70;95.60;;;;;;4993367;28;20235;-91
2021/12/04 19:04:49;;;;;;;0.88;0.85;;;7.70;95.50;;;;;;5013706;28;20214;-91
2021/12/04 19:07:16;;;;;;;1.03;1.00;;;7.70;95.40;;;;;;5013711;28;20298;-91
2021/12/04 19:09:43;;;;;;;1.10;1.00;;;7.80;95.20;;;;;;5013387;28;20655;-91
2021/12/04 19:12:14;;;;;;;1.90;1.10;;;7.70;95.50;;;;;;5029030;28;20237;-91
2021/12/04 19:20:51;;;;;;;1.85;1.73;;;7.80;95.00;;;;;;5036742;28;20198;-91
2021/12/04 19:23:30;;;;;;;1.45;1.27;;;7.70;95.60;;;;;;5035232;28;20233;-90
2021/12/04 19:25:57;;;;;;;1.73;1.27;;;7.70;95.60;;;;;;5037446;28;20198;-91
2021/12/04 19:28:25;;;;;;;0.90;0.90;;;7.60;95.40;;;;;;5025002;28;20573;-91
2021/12/04 19:50:53;;;;;;;1.73;1.63;;;7.80;90.90;;;;;;5004213;28;20214;-91
2021/12/04 19:53:31;;;;;;;10.70;7.30;;;7.80;91.20;;;;;;5016841;28;20222;-91
2021/12/04 19:56:04;;;;;;;1.53;1.33;;;7.70;91.50;;;;;;5015432;28;20241;-90
2021/12/04 19:58:37;;;;;;;1.17;1.08;;;7.80;91.20;;;;;;5016745;28;20263;-90
2021/12/04 20:01:10;;;;;;;2.08;1.55;;;7.70;90.90;;;;;;5007079;28;20752;-90
2021/12/04 20:03:52;;;;;;;2.97;1.38;;;7.70;91.30;;;;;;5011818;28;20538;-88
2021/12/04 20:06:27;;;;;;;2.28;1.20;;;7.70;91.30;;;;;;5009776;28;21779;-88
2021/12/04 20:09:12;;;;;;;1.63;1.53;;;7.60;91.80;;;;;;5006171;28;20258;-91
2021/12/04 20:14:25;;;;;;;1.30;1.10;;;7.50;91.80;;;;;;5013945;28;20583;-90
2021/12/04 20:16:53;;;;;;;1.10;1.00;;;7.40;92.10;;;;;;5013820;28;20285;-92
2021/12/04 20:19:20;;;;;;;1.10;1.00;;;7.40;92.00;;;;;;5014772;28;20208;-91
2021/12/04 20:21:52;;;;;;;1.10;1.00;;;7.40;91.80;;;;;;5005669;28;20227;-90
2021/12/04 20:24:21;;;;;;;1.30;1.20;;;7.40;91.90;;;;;;5006260;28;20234;-90
2021/12/04 20:26:52;;;;;;;1.50;1.40;;;7.40;92.00;;;;;;5000904;28;20246;-90
2021/12/04 20:32:26;;;;;;;1.13;1.07;;;7.30;92.10;;;;;;5001577;28;20302;-93
2021/12/04 21:08:19;;;;;;;1.17;1.10;;;6.70;93.60;;;;;;5012070;28;20302;-90
2021/12/04 21:49:36;;;;;;;0.97;0.97;;;6.80;94.70;;;;;;5012007;28;20337;-89
2021/12/04 21:52:04;;;;;;;1.07;0.80;;;6.70;94.50;;;;;;5010412;28;20237;-90
2021/12/04 21:54:33;;;;;;;1.03;0.90;;;6.70;94.80;;;;;;5006950;28;20640;-92
2021/12/04 21:57:12;;;;;;;1.98;1.55;;;6.70;94.50;;;;;;5008715;28;20261;-91
2021/12/04 22:10:55;;;;;;;1.30;1.00;;;6.80;94.50;;;;;;5020982;28;20198;-90
2021/12/04 22:13:31;;;;;;;1.80;1.47;;;6.80;93.80;;;;;;5011982;28;20206;-90
2021/12/04 22:22:33;;;;;;;0.83;0.83;;;6.60;93.00;;;;;;4994632;28;20242;-89
2021/12/04 23:00:41;;;;;;;0.80;0.80;;;6.10;93.30;;;;;;5028926;28;20218;-88
2021/12/04 23:03:26;;;;;;;1.93;1.77;;;6.10;93.30;;;;;;5027517;28;20206;-88
2021/12/04 23:11:37;;;;;;;1.07;0.97;;;6.00;93.90;;;;;;5026400;28;20241;-88
2021/12/04 23:14:12;;;;;;;1.07;1.03;;;6.00;94.00;;;;;;5028623;28;20277;-90
2021/12/04 23:16:50;;;;;;;1.47;1.37;;;5.80;94.70;;;;;;5029965;28;20280;-88
2021/12/04 23:19:56;;;;;;;7.10;4.90;;;5.80;95.20;;;;;;5026513;28;20674;-89
2021/12/04 23:36:49;;;;;;;1.87;1.23;;;5.30;96.70;;;;;;4949367;28;20260;-87
2021/12/04 23:42:25;;;;;;;0.90;0.90;;;5.10;96.90;;;;;;5027842;28;20238;-88
2021/12/04 23:48:12;;;;;;;1.60;0.90;;;4.90;97.00;;;;;;5018376;28;20293;-88
